createdAt,value
2022-07-28T00:02:30.006Z,16.30
2022-07-28T00:07:32.603Z,16.10
2022-07-28T00:12:35.033Z,16.10
2022-07-28T00:17:37.438Z,15.90
2022-07-28T00:22:44.604Z,16.00
2022-07-28T00:27:46.915Z,16.00
2022-07-28T00:32:49.371Z,16.50
2022-07-28T00:37:51.665Z,16.50
2022-07-28T00:42:54.398Z,16.60
2022-07-28T00:47:56.665Z,16.50
2022-07-28T00:53:00.035Z,16.70
2022-07-28T00:58:02.336Z,16.70
2022-07-28T01:03:06.393Z,16.50
2022-07-28T01:08:31.935Z,16.20
2022-07-28T01:13:49.901Z,16.00
2022-07-28T01:19:05.168Z,16.00
2022-07-28T01:24:27.837Z,16.00
2022-07-28T01:29:47.838Z,16.00
2022-07-28T01:35:10.354Z,16.00
2022-07-28T01:40:17.667Z,16.10
2022-07-28T01:45:21.310Z,16.10
2022-07-28T01:50:25.687Z,16.20
2022-07-28T01:55:29.212Z,16.10
2022-07-28T02:00:32.775Z,16.00
2022-07-28T02:05:37.268Z,16.10
2022-07-28T02:10:42.573Z,15.70
2022-07-28T02:15:45.201Z,15.80
2022-07-28T02:20:49.998Z,15.80
2022-07-28T02:25:53.366Z,15.80
2022-07-28T02:31:04.615Z,15.90
2022-07-28T02:36:37.542Z,15.90
2022-07-28T02:41:42.857Z,15.90
2022-07-28T02:46:47.960Z,16.00
2022-07-28T02:51:52.627Z,15.90
2022-07-28T02:56:57.585Z,16.10
2022-07-28T03:02:00.859Z,15.80
2022-07-28T03:07:03.146Z,15.90
2022-07-28T03:12:06.521Z,15.80
2022-07-28T03:17:09.252Z,15.80
2022-07-28T03:22:11.981Z,15.80
2022-07-28T03:27:21.926Z,15.80
2022-07-28T03:32:27.015Z,15.50
2022-07-28T03:37:38.751Z,15.30
2022-07-28T03:42:44.622Z,15.20
2022-07-28T03:47:55.510Z,15.20
2022-07-28T03:52:59.213Z,15.00
2022-07-28T03:58:01.541Z,14.90
2022-07-28T04:03:03.878Z,15.00
2022-07-28T04:08:25.469Z,15.10
2022-07-28T04:13:27.709Z,14.80
2022-07-28T04:18:30.180Z,14.60
2022-07-28T04:23:32.953Z,14.30
2022-07-28T04:28:35.260Z,14.50
2022-07-28T04:33:37.574Z,14.50
2022-07-28T04:38:39.924Z,14.30
2022-07-28T04:43:42.550Z,15.00
2022-07-28T04:48:45.339Z,15.60
2022-07-28T04:53:47.893Z,15.80
2022-07-28T04:58:50.247Z,16.10
2022-07-28T05:03:53.291Z,16.40
2022-07-28T05:08:55.648Z,17.00
2022-07-28T05:13:57.936Z,17.20
2022-07-28T05:19:00.233Z,17.20
2022-07-28T05:24:02.566Z,16.80
2022-07-28T05:29:04.971Z,16.50
2022-07-28T05:34:07.242Z,15.90
2022-07-28T05:39:09.711Z,15.60
2022-07-28T05:44:12.206Z,15.50
2022-07-28T05:49:14.737Z,15.80
2022-07-28T05:54:17.323Z,16.40
2022-07-28T05:59:19.897Z,16.70
2022-07-28T06:04:25.806Z,16.60
2022-07-28T06:09:29.505Z,17.00
2022-07-28T06:14:31.970Z,17.20
2022-07-28T06:19:34.302Z,17.30
2022-07-28T06:24:37.098Z,17.10
2022-07-28T06:29:39.376Z,16.70
2022-07-28T06:34:42.753Z,16.60
2022-07-28T06:39:45.107Z,16.90
2022-07-28T06:44:58.478Z,17.40
2022-07-28T06:50:02.311Z,17.80
2022-07-28T06:55:06.284Z,18.20
2022-07-28T07:00:12.867Z,18.40
2022-07-28T07:05:16.120Z,18.20
2022-07-28T07:10:18.533Z,18.60
2022-07-28T07:15:21.591Z,18.10
2022-07-28T07:20:24.071Z,18.00
2022-07-28T07:25:29.188Z,18.60
2022-07-28T07:30:31.586Z,18.90
2022-07-28T07:35:34.234Z,18.80
2022-07-28T07:40:36.673Z,18.60
2022-07-28T07:45:41.074Z,18.80
2022-07-28T07:50:44.115Z,19.00
2022-07-28T07:55:46.586Z,19.40
2022-07-28T08:00:49.307Z,19.60
2022-07-28T08:05:55.651Z,19.70
2022-07-28T08:10:58.013Z,19.60
2022-07-28T08:16:00.424Z,19.50
2022-07-28T08:21:03.286Z,19.60
2022-07-28T08:26:05.952Z,19.80
2022-07-28T08:31:08.301Z,19.60
2022-07-28T08:36:10.836Z,20.10
2022-07-28T08:41:19.858Z,20.40
2022-07-28T08:46:24.285Z,20.30
2022-07-28T08:51:27.809Z,20.50
2022-07-28T08:56:31.572Z,20.50
2022-07-28T09:01:38.581Z,20.50
2022-07-28T09:06:42.839Z,20.50
2022-07-28T09:11:45.081Z,20.70
2022-07-28T09:16:47.520Z,20.80
2022-07-28T09:21:49.874Z,20.60
2022-07-28T09:27:03.494Z,20.80
2022-07-28T09:32:07.027Z,21.10
2022-07-28T09:37:26.426Z,21.50
2022-07-28T09:42:46.563Z,21.60
2022-07-28T09:47:49.229Z,21.50
2022-07-28T09:52:51.782Z,21.30
2022-07-28T09:57:55.677Z,21.40
2022-07-28T10:02:58.355Z,21.50
2022-07-28T10:08:00.748Z,21.80
2022-07-28T10:13:06.559Z,22.00
2022-07-28T10:18:08.847Z,22.30
2022-07-28T10:23:12.754Z,22.20
2022-07-28T10:28:19.211Z,22.60
2022-07-28T10:33:23.604Z,22.70
2022-07-28T10:38:35.066Z,23.10
2022-07-28T10:43:42.926Z,23.20
2022-07-28T10:48:48.911Z,23.40
2022-07-28T10:53:56.592Z,23.60
2022-07-28T10:59:33.181Z,23.50
2022-07-28T11:04:41.631Z,24.20
2022-07-28T11:09:47.279Z,24.10
2022-07-28T11:14:49.761Z,24.80
2022-07-28T11:20:24.884Z,24.40
2022-07-28T11:25:22.183Z,24.50
2022-07-28T11:30:28.830Z,24.00
2022-07-28T11:35:41.040Z,24.00
2022-07-28T11:40:53.597Z,23.90
2022-07-28T11:46:02.072Z,24.20
2022-07-28T11:51:04.532Z,24.80
2022-07-28T11:56:11.917Z,24.50
2022-07-28T12:01:19.909Z,24.80
2022-07-28T12:06:34.015Z,24.30
2022-07-28T12:11:41.078Z,24.50
2022-07-28T12:16:51.384Z,24.40
2022-07-28T12:21:55.570Z,24.70
2022-07-28T12:27:00.258Z,25.00
2022-07-28T12:32:05.330Z,25.00
2022-07-28T12:37:12.087Z,24.70
2022-07-28T12:42:14.746Z,24.90
2022-07-28T12:47:26.849Z,25.10
2022-07-28T12:52:29.101Z,25.10
2022-07-28T12:57:50.583Z,24.50
2022-07-28T13:02:56.443Z,24.50
2022-07-28T13:08:04.830Z,24.50
2022-07-28T13:13:07.972Z,24.70
2022-07-28T13:18:10.448Z,25.00
2022-07-28T13:23:12.794Z,24.90
2022-07-28T13:28:28.477Z,25.00
2022-07-28T13:33:30.863Z,25.00
2022-07-28T13:38:33.503Z,25.50
2022-07-28T13:43:36.589Z,24.90
2022-07-28T13:48:59.789Z,24.80
2022-07-28T13:54:02.832Z,24.90
2022-07-28T13:59:07.318Z,24.90
2022-07-28T14:04:16.751Z,25.10
2022-07-28T14:09:21.327Z,24.70
2022-07-28T14:14:24.958Z,24.80
2022-07-28T14:19:38.298Z,24.90
2022-07-28T14:24:42.011Z,25.00
2022-07-28T14:29:45.791Z,24.90
2022-07-28T14:34:48.048Z,25.10
2022-07-28T14:39:50.597Z,25.00
2022-07-28T14:44:53.321Z,24.90
2022-07-28T14:49:57.777Z,25.10
2022-07-28T14:55:00.924Z,25.10
2022-07-28T15:00:10.582Z,25.00
2022-07-28T15:05:13.239Z,25.30
2022-07-28T15:10:15.976Z,25.30
2022-07-28T15:15:18.527Z,25.20
2022-07-28T15:20:20.922Z,25.10
2022-07-28T15:25:23.482Z,25.00
2022-07-28T15:30:26.270Z,25.00
2022-07-28T15:35:28.655Z,24.90
2022-07-28T15:40:51.611Z,24.80
2022-07-28T15:45:56.713Z,24.90
2022-07-28T15:50:59.010Z,25.00
2022-07-28T15:56:02.629Z,24.90
2022-07-28T16:01:04.906Z,24.70
2022-07-28T16:06:07.266Z,24.70
2022-07-28T16:11:11.560Z,24.80
2022-07-28T16:16:14.968Z,24.70
2022-07-28T16:21:18.981Z,24.70
2022-07-28T16:26:21.337Z,24.40
2022-07-28T16:31:23.736Z,24.40
2022-07-28T16:36:26.047Z,24.20
2022-07-28T16:41:47.410Z,24.40
2022-07-28T16:46:50.682Z,24.50
2022-07-28T16:51:54.551Z,24.40
2022-07-28T16:56:57.136Z,24.30
2022-07-28T17:01:59.600Z,24.30
2022-07-28T17:07:02.767Z,24.20
2022-07-28T17:12:06.272Z,24.10
2022-07-28T17:17:09.042Z,24.10
2022-07-28T17:22:11.971Z,24.00
2022-07-28T17:32:36.823Z,24.10
2022-07-28T17:37:39.105Z,23.90
2022-07-28T17:42:41.507Z,23.90
2022-07-28T17:47:44.265Z,23.80
2022-07-28T17:52:46.881Z,23.80
2022-07-28T17:57:49.123Z,23.80
2022-07-28T18:02:51.997Z,23.80
2022-07-28T18:07:59.100Z,23.60
2022-07-28T18:13:02.020Z,23.70
2022-07-28T18:18:04.374Z,23.50
2022-07-28T18:23:08.537Z,23.60
2022-07-28T18:28:10.928Z,23.40
2022-07-28T18:33:17.430Z,23.60
2022-07-28T18:38:20.259Z,23.40
2022-07-28T18:43:22.702Z,23.50
2022-07-28T18:48:27.819Z,23.50
2022-07-28T18:53:30.148Z,23.40
2022-07-28T18:58:33.383Z,23.30
2022-07-28T19:03:35.671Z,23.20
2022-07-28T19:08:38.039Z,23.10
2022-07-28T19:13:40.473Z,23.10
2022-07-28T19:18:42.874Z,23.00
2022-07-28T19:23:46.338Z,22.70
2022-07-28T19:28:48.731Z,22.70
2022-07-28T19:33:52.103Z,22.60
2022-07-28T19:38:54.517Z,22.80
2022-07-28T19:43:57.705Z,22.80
2022-07-28T19:49:00.206Z,22.70
2022-07-28T19:54:02.618Z,22.80
2022-07-28T19:59:05.180Z,22.80
2022-07-28T20:04:07.800Z,22.90
2022-07-28T20:09:10.203Z,22.80
2022-07-28T20:14:12.848Z,22.70
2022-07-28T20:19:15.311Z,22.70
2022-07-28T20:24:19.777Z,22.70
2022-07-28T20:29:22.231Z,23.00
2022-07-28T20:34:24.629Z,23.10
2022-07-28T20:39:44.469Z,23.10
2022-07-28T20:44:47.902Z,22.90
2022-07-28T20:49:50.275Z,22.60
2022-07-28T20:54:54.841Z,22.60
2022-07-28T20:59:57.595Z,22.30
2022-07-28T21:04:59.989Z,22.40
2022-07-28T21:10:02.890Z,22.20
2022-07-28T21:15:07.187Z,22.40
2022-07-28T21:20:10.154Z,22.40
2022-07-28T21:25:12.500Z,22.30
2022-07-28T21:30:14.717Z,22.40
2022-07-28T21:35:17.023Z,22.30
2022-07-28T21:40:19.409Z,21.90
2022-07-28T21:45:22.163Z,22.20
2022-07-28T21:50:24.505Z,22.90
2022-07-28T21:55:26.875Z,22.50
2022-07-28T22:00:29.378Z,22.10
2022-07-28T22:05:31.767Z,22.30
2022-07-28T22:10:34.118Z,22.20
2022-07-28T22:15:36.413Z,22.80
2022-07-28T22:20:38.861Z,22.40
2022-07-28T22:25:41.512Z,22.10
2022-07-28T22:30:43.995Z,22.10
2022-07-28T22:35:46.668Z,22.10
2022-07-28T22:40:48.926Z,21.80
2022-07-28T22:45:51.712Z,21.70
2022-07-28T22:50:54.255Z,21.70
2022-07-28T22:55:56.618Z,21.60
2022-07-28T23:00:58.887Z,21.70
2022-07-28T23:06:02.544Z,22.00
2022-07-28T23:11:05.555Z,22.00
2022-07-28T23:16:11.971Z,22.40
2022-07-28T23:21:14.258Z,21.90
2022-07-28T23:26:16.713Z,21.70
2022-07-28T23:31:19.023Z,21.70
2022-07-28T23:36:27.287Z,21.60
2022-07-28T23:41:30.394Z,21.50
2022-07-28T23:46:33.142Z,21.40
2022-07-28T23:51:47.833Z,21.70
2022-07-28T23:56:55.073Z,21.60
